createdAt,value
2018-10-19T00:00:10.094Z,100.00
2018-10-19T00:02:38.967Z,100.00
2018-10-19T00:05:07.872Z,100.00
2018-10-19T00:07:36.987Z,100.00
2018-10-19T00:10:06.881Z,100.00
2018-10-19T00:12:35.768Z,100.00
2018-10-19T00:15:04.986Z,100.00
2018-10-19T00:17:34.121Z,100.00
2018-10-19T00:20:03.038Z,100.00
2018-10-19T00:22:32.247Z,100.00
2018-10-19T00:25:01.014Z,100.00
2018-10-19T00:27:29.953Z,100.00
2018-10-19T00:29:58.755Z,100.00
2018-10-19T00:32:27.933Z,100.00
2018-10-19T00:34:57.244Z,100.00
2018-10-19T00:37:26.095Z,100.00
2018-10-19T00:39:55.029Z,100.00
2018-10-19T00:42:23.938Z,100.00
2018-10-19T00:44:53.389Z,100.00
2018-10-19T00:47:22.220Z,100.00
2018-10-19T00:49:51.080Z,100.00
2018-10-19T00:52:20.418Z,100.00
2018-10-19T00:54:49.265Z,100.00
2018-10-19T00:57:18.071Z,100.00
2018-10-19T00:59:46.846Z,100.00
2018-10-19T01:02:16.110Z,100.00
2018-10-19T01:04:44.908Z,100.00
2018-10-19T01:07:14.604Z,100.00
2018-10-19T01:09:43.742Z,100.00
2018-10-19T01:12:12.973Z,100.00
2018-10-19T01:14:41.747Z,100.00
2018-10-19T01:17:10.675Z,100.00
2018-10-19T01:19:39.424Z,100.00
2018-10-19T01:22:08.311Z,100.00
2018-10-19T01:24:37.115Z,100.00
2018-10-19T01:27:06.466Z,100.00
2018-10-19T01:29:35.714Z,100.00
2018-10-19T01:32:04.707Z,100.00
2018-10-19T01:34:33.517Z,100.00
2018-10-19T01:37:05.999Z,100.00
2018-10-19T01:39:34.864Z,100.00
2018-10-19T01:42:04.047Z,100.00
2018-10-19T01:44:33.282Z,100.00
2018-10-19T01:47:02.548Z,100.00
2018-10-19T01:49:31.422Z,100.00
2018-10-19T01:52:00.750Z,100.00
2018-10-19T01:54:29.638Z,100.00
2018-10-19T01:56:58.461Z,100.00
2018-10-19T01:59:27.265Z,100.00
2018-10-19T02:01:56.420Z,100.00
2018-10-19T02:04:25.560Z,100.00
2018-10-19T02:06:54.392Z,100.00
2018-10-19T02:09:23.157Z,100.00
2018-10-19T02:11:52.059Z,100.00
2018-10-19T02:14:21.148Z,100.00
2018-10-19T02:16:50.194Z,100.00
2018-10-19T02:19:18.988Z,100.00
2018-10-19T02:21:47.733Z,100.00
2018-10-19T02:24:17.001Z,100.00
2018-10-19T02:26:46.065Z,100.00
2018-10-19T02:29:14.987Z,100.00
2018-10-19T02:31:44.135Z,100.00
2018-10-19T02:34:13.601Z,100.00
2018-10-19T02:36:42.681Z,100.00
2018-10-19T02:39:11.788Z,100.00
2018-10-19T02:41:40.582Z,100.00
2018-10-19T02:44:09.658Z,100.00
2018-10-19T02:46:38.518Z,100.00
2018-10-19T02:49:07.556Z,100.00
2018-10-19T02:51:36.862Z,100.00
2018-10-19T02:54:06.228Z,100.00
2018-10-19T02:56:35.191Z,100.00
2018-10-19T02:59:04.025Z,100.00
2018-10-19T03:01:33.095Z,100.00
2018-10-19T03:04:02.202Z,100.00
2018-10-19T03:06:31.270Z,100.00
2018-10-19T03:09:00.236Z,100.00
2018-10-19T03:11:29.103Z,100.00
2018-10-19T03:13:58.363Z,100.00
2018-10-19T03:16:27.353Z,100.00
2018-10-19T03:18:56.179Z,100.00
2018-10-19T03:21:24.988Z,100.00
2018-10-19T03:23:54.427Z,100.00
2018-10-19T03:26:23.599Z,100.00
2018-10-19T03:28:52.447Z,100.00
2018-10-19T03:31:21.305Z,100.00
2018-10-19T03:33:50.237Z,100.00
2018-10-19T03:36:19.595Z,100.00
2018-10-19T03:38:48.430Z,100.00
2018-10-19T03:41:17.508Z,100.00
2018-10-19T03:43:46.434Z,100.00
2018-10-19T03:46:15.251Z,100.00
2018-10-19T03:48:44.151Z,100.00
2018-10-19T03:51:13.108Z,100.00
2018-10-19T03:53:42.081Z,100.00
2018-10-19T03:56:11.108Z,100.00
2018-10-19T03:58:39.992Z,100.00
2018-10-19T04:01:08.814Z,100.00
2018-10-19T04:03:38.344Z,100.00
2018-10-19T04:06:07.130Z,100.00
2018-10-19T04:08:36.670Z,100.00
2018-10-19T04:11:05.709Z,100.00
2018-10-19T04:13:34.466Z,100.00
2018-10-19T04:16:03.308Z,100.00
2018-10-19T04:18:32.094Z,100.00
2018-10-19T04:21:01.605Z,100.00
2018-10-19T04:23:30.675Z,100.00
2018-10-19T04:26:00.026Z,100.00
2018-10-19T04:28:28.877Z,100.00
2018-10-19T04:30:57.951Z,100.00
2018-10-19T04:33:28.370Z,100.00
2018-10-19T04:35:57.295Z,100.00
2018-10-19T04:38:26.457Z,100.00
2018-10-19T04:40:55.546Z,100.00
2018-10-19T04:43:24.803Z,100.00
2018-10-19T04:45:54.011Z,100.00
2018-10-19T04:48:22.933Z,100.00
2018-10-19T04:50:51.692Z,100.00
2018-10-19T04:53:20.525Z,100.00
2018-10-19T04:55:49.302Z,100.00
2018-10-19T04:58:18.147Z,100.00
2018-10-19T05:00:47.212Z,100.00
2018-10-19T05:03:16.353Z,100.00
2018-10-19T05:05:45.168Z,100.00
2018-10-19T05:08:13.999Z,100.00
2018-10-19T05:10:42.759Z,100.00
2018-10-19T05:13:11.653Z,100.00
2018-10-19T05:15:40.813Z,100.00
2018-10-19T05:18:09.907Z,100.00
2018-10-19T05:20:38.654Z,100.00
2018-10-19T05:23:07.703Z,100.00
2018-10-19T05:25:36.428Z,100.00
2018-10-19T05:28:05.283Z,100.00
2018-10-19T05:30:34.360Z,100.00
2018-10-19T05:33:03.566Z,100.00
2018-10-19T05:35:32.267Z,100.00
2018-10-19T05:38:01.417Z,100.00
2018-10-19T05:40:30.197Z,100.00
2018-10-19T05:42:59.056Z,100.00
2018-10-19T05:45:27.960Z,100.00
2018-10-19T05:47:57.025Z,100.00
2018-10-19T05:50:25.792Z,100.00
2018-10-19T05:52:54.614Z,100.00
2018-10-19T05:55:23.677Z,100.00
2018-10-19T05:57:52.480Z,100.00
2018-10-19T06:00:21.598Z,100.00
2018-10-19T06:02:50.358Z,100.00
2018-10-19T06:05:25.618Z,100.00
2018-10-19T06:07:54.468Z,100.00
2018-10-19T06:10:23.256Z,100.00
2018-10-19T06:12:52.022Z,100.00
2018-10-19T06:15:20.915Z,100.00
2018-10-19T06:17:49.709Z,100.00
2018-10-19T06:20:19.144Z,100.00
2018-10-19T06:22:48.162Z,100.00
2018-10-19T06:25:16.992Z,100.00
2018-10-19T06:27:45.771Z,100.00
2018-10-19T06:30:15.066Z,100.00
2018-10-19T06:32:44.447Z,100.00
2018-10-19T06:35:13.604Z,100.00
2018-10-19T06:37:42.403Z,100.00
2018-10-19T06:40:11.409Z,100.00
2018-10-19T06:42:40.357Z,100.00
2018-10-19T06:45:09.269Z,100.00
2018-10-19T06:47:38.328Z,100.00
2018-10-19T06:50:09.336Z,100.00
2018-10-19T06:52:38.184Z,100.00
2018-10-19T06:55:08.778Z,100.00
2018-10-19T06:57:37.847Z,100.00
2018-10-19T07:00:06.826Z,100.00
2018-10-19T07:02:35.699Z,100.00
2018-10-19T07:05:05.220Z,100.00
2018-10-19T07:07:34.401Z,100.00
2018-10-19T07:10:03.215Z,100.00
2018-10-19T07:12:31.971Z,100.00
2018-10-19T07:15:01.167Z,100.00
2018-10-19T07:17:30.068Z,100.00
2018-10-19T07:19:59.536Z,100.00
2018-10-19T07:22:28.787Z,100.00
2018-10-19T07:24:58.327Z,100.00
2018-10-19T07:27:27.463Z,100.00
2018-10-19T07:29:56.364Z,100.00
2018-10-19T07:32:25.923Z,100.00
2018-10-19T07:34:55.696Z,100.00
2018-10-19T07:37:24.649Z,100.00
2018-10-19T07:39:53.526Z,100.00
2018-10-19T07:42:22.820Z,100.00
2018-10-19T07:44:51.610Z,100.00
2018-10-19T07:47:20.900Z,100.00
2018-10-19T07:49:50.065Z,100.00
2018-10-19T07:52:19.110Z,100.00
2018-10-19T07:54:48.080Z,100.00
2018-10-19T07:57:17.282Z,100.00
2018-10-19T07:59:46.104Z,100.00
2018-10-19T08:02:15.317Z,100.00
2018-10-19T08:04:44.645Z,100.00
2018-10-19T08:07:13.428Z,100.00
2018-10-19T08:09:42.244Z,100.00
2018-10-19T08:12:11.155Z,100.00
2018-10-19T08:14:40.331Z,100.00
2018-10-19T08:17:09.204Z,100.00
2018-10-19T08:19:38.051Z,100.00
2018-10-19T08:22:06.858Z,100.00
2018-10-19T08:24:35.608Z,100.00
2018-10-19T08:27:04.439Z,100.00
2018-10-19T08:29:33.198Z,100.00
2018-10-19T08:32:02.030Z,100.00
2018-10-19T08:34:30.826Z,100.00
2018-10-19T08:36:59.636Z,100.00
2018-10-19T08:39:29.044Z,100.00
2018-10-19T08:41:57.811Z,100.00
2018-10-19T08:44:26.903Z,100.00
2018-10-19T08:46:56.041Z,100.00
2018-10-19T08:49:24.945Z,100.00
2018-10-19T08:51:53.707Z,99.33
2018-10-19T08:54:22.538Z,98.71
2018-10-19T08:56:51.455Z,98.81
2018-10-19T08:59:20.316Z,99.21
2018-10-19T09:01:49.341Z,98.63
2018-10-19T09:04:18.455Z,99.18
2018-10-19T09:06:47.632Z,98.58
2018-10-19T09:09:16.678Z,96.71
2018-10-19T09:11:45.597Z,95.16
2018-10-19T09:14:25.504Z,95.34
2018-10-19T09:16:54.444Z,95.15
2018-10-19T09:19:23.502Z,95.17
2018-10-19T09:21:52.607Z,94.83
2018-10-19T09:24:21.519Z,94.86
2018-10-19T09:26:50.331Z,93.91
2018-10-19T09:29:19.191Z,94.16
2018-10-19T09:31:48.227Z,93.55
2018-10-19T09:34:17.368Z,92.75
2018-10-19T09:36:46.210Z,92.86
2018-10-19T09:39:15.448Z,90.59
2018-10-19T09:41:44.511Z,89.91
2018-10-19T09:44:13.407Z,89.84
2018-10-19T09:46:42.583Z,89.52
2018-10-19T09:49:12.795Z,87.72
2018-10-19T09:51:42.007Z,85.64
2018-10-19T09:54:12.202Z,83.35
2018-10-19T09:56:41.026Z,83.58
2018-10-19T09:59:10.438Z,82.60
2018-10-19T10:01:40.283Z,82.67
2018-10-19T10:04:09.383Z,76.71
2018-10-19T10:06:38.188Z,74.55
2018-10-19T10:09:14.931Z,76.17
2018-10-19T10:11:43.667Z,76.84
2018-10-19T10:14:12.577Z,73.53
2018-10-19T10:16:41.421Z,73.09
2018-10-19T10:19:10.614Z,72.65
2018-10-19T10:21:39.905Z,72.17
2018-10-19T10:24:08.814Z,72.00
2018-10-19T10:26:37.649Z,72.45
2018-10-19T10:29:06.914Z,72.99
2018-10-19T10:31:36.748Z,72.11
2018-10-19T10:34:06.189Z,71.68
2018-10-19T10:36:35.450Z,71.31
2018-10-19T10:39:05.132Z,70.61
2018-10-19T10:41:33.867Z,70.91
2018-10-19T10:44:02.695Z,69.48
2018-10-19T10:46:31.517Z,70.97
2018-10-19T10:49:00.872Z,69.49
2018-10-19T10:51:29.781Z,70.26
2018-10-19T10:53:59.021Z,67.99
2018-10-19T10:56:27.793Z,67.63
2018-10-19T10:58:56.687Z,68.63
2018-10-19T11:01:25.765Z,65.25
2018-10-19T11:03:54.925Z,66.40
2018-10-19T11:06:23.724Z,66.38
2018-10-19T11:08:52.634Z,64.29
2018-10-19T11:11:21.618Z,65.75
2018-10-19T11:13:50.417Z,64.57
2018-10-19T11:16:19.491Z,64.47
2018-10-19T11:18:48.365Z,65.91
2018-10-19T11:21:17.100Z,65.19
2018-10-19T11:23:46.782Z,65.28
2018-10-19T11:26:15.627Z,65.23
2018-10-19T11:28:44.473Z,65.00
2018-10-19T11:31:13.446Z,65.80
2018-10-19T11:33:42.251Z,66.02
2018-10-19T11:36:14.418Z,66.54
2018-10-19T11:38:43.504Z,65.46
2018-10-19T11:41:12.412Z,65.20
2018-10-19T11:43:41.184Z,64.28
2018-10-19T11:46:10.462Z,64.89
2018-10-19T11:48:39.411Z,64.19
2018-10-19T11:51:08.192Z,63.03
2018-10-19T11:53:36.974Z,65.05
2018-10-19T11:56:05.906Z,64.20
2018-10-19T11:58:34.843Z,63.60
2018-10-19T12:01:03.688Z,63.67
2018-10-19T12:03:32.485Z,64.79
2018-10-19T12:06:01.359Z,64.16
2018-10-19T12:08:30.743Z,64.33
2018-10-19T12:10:59.476Z,64.81
2018-10-19T12:13:28.358Z,63.21
2018-10-19T12:15:57.211Z,63.92
2018-10-19T12:18:25.967Z,61.46
2018-10-19T12:20:54.903Z,61.98
2018-10-19T12:23:23.674Z,62.92
2018-10-19T12:25:52.785Z,64.22
2018-10-19T12:28:21.852Z,63.44
2018-10-19T12:30:50.861Z,62.39
2018-10-19T12:33:19.715Z,62.84
2018-10-19T12:35:48.468Z,62.00
2018-10-19T12:38:18.034Z,62.28
2018-10-19T12:40:46.866Z,61.69
2018-10-19T12:43:15.833Z,62.57
2018-10-19T12:46:22.007Z,61.63
2018-10-19T12:48:51.142Z,62.12
2018-10-19T12:51:20.843Z,61.06
2018-10-19T12:53:50.047Z,62.78
2018-10-19T12:56:19.778Z,62.97
2018-10-19T12:58:49.613Z,63.55
2018-10-19T13:01:19.094Z,62.02
2018-10-19T13:03:47.974Z,61.70
2018-10-19T13:06:17.102Z,61.75
2018-10-19T13:08:45.858Z,62.70
2018-10-19T13:11:15.340Z,63.63
2018-10-19T13:13:44.789Z,63.60
2018-10-19T13:16:13.854Z,62.89
2018-10-19T13:18:42.782Z,62.90
2018-10-19T13:21:11.755Z,63.73
2018-10-19T13:23:40.866Z,63.76
2018-10-19T13:26:10.203Z,63.97
2018-10-19T13:28:39.087Z,64.39
2018-10-19T13:31:08.388Z,63.27
2018-10-19T13:33:37.232Z,63.40
2018-10-19T13:36:06.450Z,63.75
2018-10-19T13:38:35.546Z,64.13
2018-10-19T13:41:04.536Z,64.18
2018-10-19T13:43:33.676Z,64.04
2018-10-19T13:46:02.504Z,64.30
2018-10-19T13:48:31.306Z,64.75
2018-10-19T13:51:00.223Z,64.25
2018-10-19T13:53:29.396Z,64.70
2018-10-19T13:55:58.646Z,63.88
2018-10-19T13:58:27.814Z,64.14
2018-10-19T14:00:56.512Z,64.27
2018-10-19T14:03:25.334Z,62.75
2018-10-19T14:05:54.215Z,62.91
2018-10-19T14:08:23.204Z,61.81
2018-10-19T14:10:52.109Z,61.87
2018-10-19T14:13:21.390Z,61.27
2018-10-19T14:15:50.235Z,60.54
2018-10-19T14:18:19.352Z,59.82
2018-10-19T14:20:48.179Z,61.07
2018-10-19T14:23:17.286Z,60.63
2018-10-19T14:25:45.986Z,60.20
2018-10-19T14:28:15.191Z,59.69
2018-10-19T14:30:44.683Z,59.10
2018-10-19T14:33:13.502Z,59.36
2018-10-19T14:35:42.338Z,59.61
2018-10-19T14:38:11.778Z,59.61
2018-10-19T14:40:40.538Z,60.30
2018-10-19T14:43:09.589Z,61.21
2018-10-19T14:45:38.403Z,60.36
2018-10-19T14:48:07.246Z,60.70
2018-10-19T14:50:36.140Z,61.10
2018-10-19T14:53:05.451Z,62.00
2018-10-19T14:55:34.319Z,62.23
2018-10-19T14:58:03.355Z,61.83
2018-10-19T15:00:32.577Z,63.10
2018-10-19T15:03:01.960Z,62.65
2018-10-19T15:05:31.002Z,63.28
2018-10-19T15:08:00.479Z,62.87
2018-10-19T15:10:29.442Z,63.73
2018-10-19T15:12:58.255Z,63.85
2018-10-19T15:15:27.339Z,63.75
2018-10-19T15:17:56.664Z,63.86
2018-10-19T15:20:25.628Z,64.33
2018-10-19T15:22:54.465Z,63.96
2018-10-19T15:25:24.039Z,64.44
2018-10-19T15:27:52.812Z,64.50
2018-10-19T15:30:21.779Z,64.63
2018-10-19T15:32:50.878Z,64.68
2018-10-19T15:35:26.281Z,65.00
2018-10-19T15:37:55.111Z,65.45
2018-10-19T15:40:23.921Z,65.81
2018-10-19T15:42:52.861Z,66.19
2018-10-19T15:45:23.228Z,66.80
2018-10-19T15:47:52.163Z,66.87
2018-10-19T15:50:21.432Z,66.66
2018-10-19T15:52:50.566Z,67.78
2018-10-19T15:55:19.382Z,67.62
2018-10-19T15:57:48.240Z,67.55
2018-10-19T16:00:17.365Z,68.42
2018-10-19T16:02:46.278Z,68.15
2018-10-19T16:05:15.106Z,68.91
2018-10-19T16:07:44.391Z,68.85
2018-10-19T16:10:13.519Z,68.94
2018-10-19T16:12:42.433Z,69.02
2018-10-19T16:15:12.511Z,68.81
2018-10-19T16:17:41.336Z,69.82
2018-10-19T16:20:10.862Z,69.25
2018-10-19T16:22:39.672Z,69.82
2018-10-19T16:25:16.350Z,69.86
2018-10-19T16:27:45.425Z,70.55
2018-10-19T16:30:14.335Z,70.50
2018-10-19T16:32:43.168Z,71.22
2018-10-19T16:35:12.157Z,71.30
2018-10-19T16:37:41.019Z,71.92
2018-10-19T16:40:10.066Z,71.74
2018-10-19T16:42:38.842Z,71.93
2018-10-19T16:45:08.327Z,72.28
2018-10-19T16:47:37.038Z,72.20
2018-10-19T16:50:05.971Z,72.41
2018-10-19T16:52:34.819Z,72.35
2018-10-19T16:55:03.998Z,73.01
2018-10-19T16:57:33.398Z,72.79
2018-10-19T17:00:02.562Z,73.67
2018-10-19T17:02:31.632Z,73.54
2018-10-19T17:05:00.762Z,73.21
2018-10-19T17:07:29.682Z,73.85
2018-10-19T17:09:58.603Z,73.79
2018-10-19T17:12:27.678Z,74.45
2018-10-19T17:14:56.969Z,75.17
2018-10-19T17:17:26.073Z,75.15
2018-10-19T17:19:55.099Z,75.40
2018-10-19T17:22:24.397Z,75.64
2018-10-19T17:24:53.490Z,75.87
2018-10-19T17:27:22.841Z,76.27
2018-10-19T17:29:51.890Z,76.63
2018-10-19T17:32:20.955Z,76.46
2018-10-19T17:34:50.135Z,76.83
2018-10-19T17:37:20.148Z,77.05
2018-10-19T17:39:49.286Z,77.36
2018-10-19T17:42:18.592Z,77.81
2018-10-19T17:44:47.520Z,77.64
2018-10-19T17:47:16.422Z,77.78
2018-10-19T17:49:45.270Z,77.99
2018-10-19T17:52:14.432Z,77.97
2018-10-19T17:54:43.631Z,78.13
2018-10-19T17:57:12.621Z,78.29
2018-10-19T17:59:41.573Z,78.55
2018-10-19T18:02:10.754Z,78.86
2018-10-19T18:04:39.793Z,79.00
2018-10-19T18:07:09.323Z,79.18
2018-10-19T18:09:38.272Z,79.66
2018-10-19T18:12:07.039Z,79.82
2018-10-19T18:14:36.414Z,79.80
2018-10-19T18:17:05.531Z,79.87
2018-10-19T18:19:34.633Z,80.03
2018-10-19T18:22:03.556Z,79.99
2018-10-19T18:24:32.605Z,80.51
2018-10-19T18:27:01.362Z,80.59
2018-10-19T18:29:30.766Z,80.83
2018-10-19T18:31:59.975Z,80.82
2018-10-19T18:34:28.880Z,80.75
2018-10-19T18:36:58.019Z,81.50
2018-10-19T18:39:27.607Z,81.05
2018-10-19T18:41:56.704Z,81.24
2018-10-19T18:44:26.339Z,81.44
2018-10-19T18:46:56.084Z,81.65
2018-10-19T18:49:25.895Z,81.91
2018-10-19T18:51:56.242Z,81.92
2018-10-19T18:54:27.260Z,81.84
2018-10-19T18:56:58.284Z,82.28
2018-10-19T18:59:28.689Z,82.48
2018-10-19T19:01:59.278Z,82.50
2018-10-19T19:04:29.360Z,82.60
2018-10-19T19:06:59.387Z,82.71
2018-10-19T19:09:29.554Z,82.90
2018-10-19T19:12:00.311Z,83.62
2018-10-19T19:14:31.080Z,83.56
2018-10-19T19:17:01.769Z,83.85
2018-10-19T19:19:32.025Z,83.95
2018-10-19T19:22:02.900Z,84.24
2018-10-19T19:24:38.433Z,84.63
2018-10-19T19:27:08.553Z,84.76
2018-10-19T19:29:39.099Z,84.98
2018-10-19T19:32:09.212Z,85.44
2018-10-19T19:34:39.728Z,85.51
2018-10-19T19:37:09.401Z,85.90
2018-10-19T19:39:38.772Z,86.11
2018-10-19T19:43:12.712Z,86.25
2018-10-19T19:45:42.370Z,86.19
2018-10-19T19:48:16.633Z,86.42
2018-10-19T19:50:46.221Z,86.88
2018-10-19T19:53:16.803Z,86.68
2018-10-19T19:55:46.328Z,86.73
2018-10-19T19:58:15.285Z,86.85
2018-10-19T20:00:44.662Z,86.83
2018-10-19T20:03:13.455Z,86.78
2018-10-19T20:05:42.409Z,86.86
2018-10-19T20:08:11.554Z,86.79
2018-10-19T20:10:40.827Z,86.90
2018-10-19T20:13:09.570Z,86.84
2018-10-19T20:15:38.392Z,86.78
2018-10-19T20:18:07.776Z,86.54
2018-10-19T20:20:36.564Z,86.69
2018-10-19T20:23:05.856Z,86.74
2018-10-19T20:25:34.704Z,86.54
2018-10-19T20:28:03.610Z,86.58
2018-10-19T20:30:32.662Z,86.44
2018-10-19T20:33:01.503Z,86.49
2018-10-19T20:35:30.351Z,86.58
2018-10-19T20:37:59.823Z,86.76
2018-10-19T20:40:28.708Z,87.11
2018-10-19T20:42:57.876Z,87.04
2018-10-19T20:45:26.737Z,87.51
2018-10-19T20:47:55.590Z,87.54
2018-10-19T20:50:24.578Z,87.81
2018-10-19T20:52:53.678Z,87.80
2018-10-19T20:55:22.950Z,87.79
2018-10-19T20:57:51.739Z,87.68
2018-10-19T21:00:21.552Z,87.83
2018-10-19T21:02:50.310Z,88.32
2018-10-19T21:05:19.092Z,88.20
2018-10-19T21:07:54.127Z,88.15
2018-10-19T21:10:23.011Z,88.24
2018-10-19T21:12:51.901Z,88.29
2018-10-19T21:15:20.948Z,88.29
2018-10-19T21:17:49.840Z,88.55
2018-10-19T21:20:19.188Z,88.40
2018-10-19T21:22:47.961Z,88.37
2018-10-19T21:25:16.774Z,88.62
2018-10-19T21:27:46.185Z,88.48
2018-10-19T21:30:15.322Z,88.60
2018-10-19T21:32:44.130Z,88.71
2018-10-19T21:35:13.464Z,88.61
2018-10-19T21:37:44.073Z,89.08
2018-10-19T21:40:13.953Z,88.85
2018-10-19T21:42:43.730Z,89.20
2018-10-19T21:45:13.865Z,89.54
2018-10-19T21:47:43.706Z,89.91
2018-10-19T21:50:12.965Z,90.38
2018-10-19T21:52:41.890Z,90.47
2018-10-19T21:55:12.158Z,90.47
2018-10-19T21:57:41.127Z,90.56
2018-10-19T22:00:10.858Z,90.90
2018-10-19T22:02:39.610Z,91.24
2018-10-19T22:05:09.163Z,91.42
2018-10-19T22:07:38.020Z,91.50
2018-10-19T22:10:06.913Z,91.76
2018-10-19T22:12:35.834Z,91.76
2018-10-19T22:15:04.725Z,91.84
2018-10-19T22:17:33.794Z,91.95
2018-10-19T22:20:03.074Z,91.65
2018-10-19T22:22:31.826Z,91.94
2018-10-19T22:25:00.834Z,92.02
2018-10-19T22:27:30.280Z,92.07
2018-10-19T22:29:59.188Z,92.12
2018-10-19T22:32:28.085Z,92.15
2018-10-19T22:34:56.917Z,92.38
2018-10-19T22:37:25.780Z,92.56
2018-10-19T22:39:54.727Z,92.46
2018-10-19T22:42:23.782Z,92.75
2018-10-19T22:44:52.918Z,92.84
2018-10-19T22:47:21.879Z,93.04
2018-10-19T22:49:51.042Z,93.47
2018-10-19T22:52:19.795Z,93.85
2018-10-19T22:54:49.142Z,93.99
2018-10-19T22:57:18.351Z,94.20
2018-10-19T22:59:47.396Z,94.04
2018-10-19T23:02:16.511Z,94.11
2018-10-19T23:04:45.647Z,94.06
2018-10-19T23:07:14.578Z,94.19
2018-10-19T23:09:43.860Z,94.37
2018-10-19T23:12:12.707Z,94.34
2018-10-19T23:14:41.530Z,94.08
2018-10-19T23:17:11.267Z,94.17
2018-10-19T23:19:40.298Z,94.14
2018-10-19T23:22:10.011Z,94.31
2018-10-19T23:24:39.206Z,94.18
2018-10-19T23:27:08.308Z,94.16
2018-10-19T23:29:37.061Z,94.14
2018-10-19T23:32:06.136Z,93.81
2018-10-19T23:34:34.965Z,93.95
2018-10-19T23:37:03.852Z,93.91
2018-10-19T23:39:35.676Z,93.95
2018-10-19T23:42:04.580Z,94.06
2018-10-19T23:44:33.574Z,94.03
2018-10-19T23:47:02.396Z,93.89
2018-10-19T23:49:31.495Z,93.82
2018-10-19T23:52:00.207Z,94.22
2018-10-19T23:54:29.420Z,94.17
2018-10-19T23:56:58.271Z,94.28
2018-10-19T23:59:27.142Z,94.56
